Ginys del Meteocat
Campanya meteocatpedra

Dades de l'estació automàtica Sant Martí Sarroca

?
?
Resum diari 21:30 TU
Dades diàries de l'estació meteorològica
Temperatura mitjana 14.2 °C
Temperatura màxima 17.3 °C 12:23 TU
Temperatura mínima 10.3 °C 6:43 TU
Humitat relativa mitjana 75%
Precipitació acumulada 0.0 mm
Ratxa màxima del vent (2 m) 18.4 km/h - 346º 1:10 TU
Irradiació solar global 6.0 MJ/m2

El tram horari està expressat en Temps Universal (TU). Cal sumar una hora en horari d'hivern i dues en horari d'estiu per passar a l'hora oficial.

Sant Martí Sarroca

Metadades estació meteorol´gica
Municipi Sant Martí Sarroca
Comarca Alt Penedès
Altitud 257 m
Data alta 24.05.1997
Estat actual Operativa
Dades de període
Període
TU
TM
°C
TX
°C
TN
°C
HRM
%
PPT
mm
VVM (2 m)
km/h
DVM (2 m)
graus
VVX (2 m)
km/h
RS
W/m2
00:00 - 00:30 12.8 13.0 12.6 72 0.0 3.2 332 7.2 0
00:30 - 01:00 13.3 13.8 12.8 69 0.0 4.7 310 16.6 0
01:00 - 01:30 13.7 14.2 13.1 65 0.0 5.4 310 18.4 0
01:30 - 02:00 14.0 14.2 13.8 62 0.0 6.5 302 18.4 0
02:00 - 02:30 13.7 14.1 13.2 63 0.0 4.7 325 16.9 0
02:30 - 03:00 13.4 13.7 13.2 66 0.0 3.6 328 11.9 0
03:00 - 03:30 13.4 13.8 13.0 67 0.0 3.6 360 14.4 0
03:30 - 04:00 12.0 13.2 11.1 75 0.0 1.8 87 7.9 0
04:00 - 04:30 11.8 13.3 10.9 76 0.0 2.9 11 11.5 0
04:30 - 05:00 13.1 13.5 12.8 67 0.0 4.7 319 13.0 0
05:00 - 05:30 12.8 13.6 11.8 69 0.0 4.0 73 13.3 0
05:30 - 06:00 11.4 11.8 11.0 79 0.0 1.4 66 4.3 0
06:00 - 06:30 11.1 11.4 10.6 81 0.0 1.8 106 5.0 0
06:30 - 07:00 10.5 11.0 10.3 86 0.0 1.1 318 3.6 14
07:00 - 07:30 11.3 11.5 11.1 81 0.0 1.1 21 3.6 38
07:30 - 08:00 11.5 11.7 11.4 83 0.0 0.7 267 2.9 48
08:00 - 08:30 12.2 12.6 11.7 79 0.0 1.8 329 4.7 103
08:30 - 09:00 13.2 14.1 12.7 77 0.0 1.1 19 5.4 175
09:00 - 09:30 14.5 14.8 14.2 71 0.0 2.9 84 7.2 221
09:30 - 10:00 14.8 15.1 14.5 71 0.0 3.6 97 7.2 184
10:00 - 10:30 15.4 15.8 15.0 68 0.0 1.4 62 5.0 138
10:30 - 11:00 16.1 16.2 15.8 60 0.0 2.9 48 7.9 211
11:00 - 11:30 16.1 16.4 16.0 62 0.0 3.2 66 10.4 217
11:30 - 12:00 16.1 17.2 15.6 65 0.0 5.4 66 13.3 390
12:00 - 12:30 17.1 17.3 16.7 62 0.0 5.4 59 12.2 492
12:30 - 13:00 16.9 17.2 16.7 64 0.0 5.8 89 11.5 287
13:00 - 13:30 16.8 17.0 16.6 65 0.0 3.2 58 8.3 197
13:30 - 14:00 16.8 17.0 16.7 66 0.0 4.3 106 9.0 205
14:00 - 14:30 16.8 16.9 16.7 67 0.0 4.3 98 8.3 165
14:30 - 15:00 16.5 16.7 16.4 71 0.0 5.4 87 11.2 116
15:00 - 15:30 16.4 16.6 16.3 71 0.0 4.0 93 9.4 97
15:30 - 16:00 16.3 16.3 16.1 72 0.0 1.8 83 6.1 43
16:00 - 16:30 16.0 16.1 15.8 75 0.0 2.2 48 6.5 43
16:30 - 17:00 15.5 15.8 15.3 79 0.0 0.7 355 3.6 11
17:00 - 17:30 15.2 15.4 14.8 82 0.0 0.7 330 2.5 0
17:30 - 18:00 14.5 14.8 14.4 86 0.0 1.4 341 2.9 0
18:00 - 18:30 14.4 14.5 14.4 86 0.0 1.4 343 3.6 0
18:30 - 19:00 14.4 14.6 14.2 87 0.0 1.8 349 4.7 0
19:00 - 19:30 14.1 14.3 14.0 88 0.0 1.8 4 5.8 0
19:30 - 20:00 14.1 14.1 14.0 88 0.0 2.5 351 5.8 0
20:00 - 20:30 14.2 14.5 14.0 87 0.0 2.2 13 7.2 0
20:30 - 21:00 14.2 14.4 14.1 89 0.0 3.2 17 8.6 0
21:00 - 21:30 14.1 14.2 14.0 89 0.0 2.2 24 7.2 0
21:30 - 22:00 13.8 14.0 13.7 90 0.0 2.9 341 8.6 0

Les dades en taronja només han passat un control de qualitat automàtic. Resta pendent la seva validació definitiva.